.
WxDataArchive / Data Records for 2012-05-09
2012-05-08 May 2012 2012-05-10

Data Records for Wednesday, 09 May 2012

Time	Temp	Chill	HIndex	Humid	Dewpt	 Wind 	HiWind	WindDir	Rain 	Barom 
-----	----	-----	------	-----	-----	------	------	-------	-----	----- 
00:00	54.5	54.5	54.5	76	47.1	0	0	---	0.00	29.848 
00:05	54.4	54.4	54.4	76	47.0	0	0	---	0.00	29.848 
00:10	54.2	54.2	54.2	76	46.8	0	0	---	0.00	29.848 
00:15	54.1	54.1	54.1	77	47.0	0	0	---	0.00	29.845 
00:20	53.9	53.9	53.9	77	46.9	0	0	---	0.00	29.845 
00:25	53.9	53.9	53.9	77	46.9	0	0	---	0.00	29.845 
00:30	53.8	53.8	53.8	77	46.8	0	0	---	0.00	29.844 
00:35	53.8	53.8	53.8	78	47.1	0	0	---	0.00	29.844 
00:40	53.6	53.6	53.6	78	46.9	0	0	---	0.00	29.844 
00:45	53.6	53.6	53.6	77	46.6	0	0	---	0.00	29.843 
00:50	53.6	53.6	53.6	77	46.6	0	0	---	0.00	29.843 
00:55	53.8	53.8	53.8	77	46.8	0	0	---	0.00	29.843 
01:00	53.8	53.8	53.8	76	46.4	0	0	---	0.00	29.841 
01:05	53.9	53.9	53.9	76	46.5	0	0	---	0.00	29.841 
01:10	53.9	53.9	53.9	75	46.2	0	0	---	0.00	29.841 
01:15	54.1	54.1	54.1	74	46.0	0	0	---	0.00	29.839 
01:20	54.2	54.2	54.2	73	45.7	0	0	---	0.00	29.839 
01:25	54.5	54.5	54.5	72	45.7	0	0	---	0.00	29.839 
01:30	54.7	54.7	54.7	71	45.5	0	0	---	0.00	29.834 
01:35	54.7	54.7	54.7	71	45.5	0	0	---	0.00	29.834 
01:40	54.5	54.5	54.5	71	45.3	0	0	---	0.00	29.834 
01:45	54.4	54.4	54.4	71	45.2	0	0	---	0.00	29.830 
01:50	54.2	54.2	54.2	71	45.0	0	0	---	0.00	29.830 
01:55	54.1	54.1	54.1	71	44.9	0	0	---	0.00	29.830 
02:00	53.9	53.9	53.9	71	44.7	0	0	---	0.00	29.827 
02:05	53.6	53.6	53.6	71	44.4	0	0	---	0.00	29.827 
02:10	53.6	53.6	53.6	72	44.8	0	0	---	0.00	29.827 
02:15	53.5	53.5	53.5	72	44.7	0	0	---	0.00	29.819 
02:20	53.3	53.3	53.3	72	44.5	0	0	---	0.00	29.819 
02:25	53.2	53.2	53.2	73	44.8	0	0	---	0.00	29.819 
02:30	53.1	53.1	53.1	73	44.7	0	0	---	0.00	29.818 
02:35	52.9	52.9	52.9	74	44.8	0	0	---	0.00	29.818 
02:40	52.8	52.8	52.8	74	44.7	0	0	---	0.00	29.818 
02:45	52.6	52.6	52.6	74	44.6	0	0	---	0.00	29.817 
02:50	52.6	52.6	52.6	74	44.6	0	0	---	0.00	29.817 
02:55	52.6	52.6	52.6	75	44.9	0	0	---	0.00	29.817 
03:00	52.6	52.6	52.6	75	44.9	0	0	---	0.00	29.815 
03:05	52.6	52.6	52.6	75	44.9	0	0	---	0.00	29.815 
03:10	52.5	52.5	52.5	75	44.8	0	0	---	0.00	29.815 
03:15	52.6	52.6	52.6	75	44.9	0	0	---	0.00	29.815 
03:20	52.8	52.8	52.8	75	45.1	0	0	---	0.00	29.815 
03:25	52.8	52.8	52.8	75	45.1	0	0	---	0.00	29.815 
03:30	52.9	52.9	52.9	74	44.8	0	0	---	0.00	29.815 
03:35	52.9	52.9	52.9	74	44.8	0	0	---	0.00	29.815 
03:40	52.8	52.8	52.8	75	45.1	0	0	---	0.00	29.815 
03:45	52.8	52.8	52.8	75	45.1	0	0	---	0.00	29.818 
03:50	52.8	52.8	52.8	75	45.1	0	0	---	0.00	29.818 
03:55	52.6	52.6	52.6	75	44.9	0	0	---	0.00	29.818 
04:00	52.6	52.6	52.6	75	44.9	0	0	---	0.00	29.822 
04:05	52.6	52.6	52.6	76	45.3	0	0	---	0.00	29.822 
04:10	52.5	52.5	52.5	76	45.2	0	0	---	0.00	29.822 
04:15	52.5	52.5	52.5	76	45.2	0	0	---	0.00	29.818 
04:20	52.5	52.5	52.5	76	45.2	0	0	---	0.00	29.818 
04:25	52.3	52.3	52.3	76	45.0	0	0	---	0.00	29.818 
04:30	52.3	52.3	52.3	76	45.0	0	0	---	0.00	29.818 
04:35	52.3	52.3	52.3	76	45.0	0	0	---	0.00	29.818 
04:40	52.3	52.3	52.3	76	45.0	0	0	---	0.00	29.818 
04:45	52.3	52.3	52.3	76	45.0	0	0	---	0.00	29.816 
04:50	52.3	52.3	52.3	76	45.0	0	0	---	0.00	29.816 
04:55	52.3	52.3	52.3	76	45.0	0	0	---	0.00	29.816 
05:00	52.3	52.3	52.3	76	45.0	0	0	---	0.00	29.817 
05:05	52.2	52.2	52.2	77	45.2	0	0	---	0.00	29.817 
05:10	52.2	52.2	52.2	77	45.2	0	0	---	0.00	29.817 
05:15	52.0	52.0	52.0	77	45.0	0	0	---	0.00	29.815 
05:20	51.9	51.9	51.9	77	44.9	0	0	---	0.00	29.815 
05:25	51.7	51.7	51.7	77	44.7	0	0	---	0.00	29.815 
05:30	51.6	51.6	51.6	78	45.0	0	0	---	0.00	29.815 
05:35	51.4	51.4	51.4	78	44.8	0	0	---	0.00	29.815 
05:40	51.3	51.3	51.3	79	45.0	0	0	---	0.00	29.815 
05:45	51.1	51.1	51.1	79	44.8	0	0	---	0.00	29.813 
05:50	51.0	51.0	51.0	79	44.7	0	0	---	0.00	29.813 
05:55	50.8	50.8	50.8	80	44.9	0	0	---	0.00	29.813 
06:00	50.7	50.7	50.7	80	44.8	0	0	---	0.00	29.811 
06:05	50.5	50.5	50.5	81	44.9	0	0	---	0.00	29.811 
06:10	50.4	50.4	50.4	81	44.8	0	0	---	0.00	29.811 
06:15	50.2	50.2	50.2	81	44.6	0	0	---	0.00	29.811 
06:20	50.1	50.1	50.1	81	44.5	0	0	---	0.00	29.811 
06:25	50.1	50.1	50.1	82	44.8	0	0	---	0.00	29.811 
06:30	49.9	49.9	49.9	82	44.6	0	0	---	0.00	29.814 
06:35	49.9	49.9	49.9	82	44.6	0	0	---	0.00	29.814 
06:40	49.8	49.8	49.8	83	44.8	0	0	---	0.00	29.814 
06:45	49.9	49.9	49.9	83	44.9	0	0	---	0.00	29.817 
06:50	50.1	50.1	50.1	83	45.1	0	0	---	0.00	29.817 
06:55	50.2	50.2	50.2	83	45.2	0	0	---	0.00	29.817 
07:00	50.5	50.5	50.5	83	45.5	0	0	---	0.00	29.818 
07:05	50.8	50.8	50.8	82	45.5	0	0	---	0.00	29.818 
07:10	51.1	51.1	51.1	82	45.8	0	1	270	0.00	29.818 
07:15	51.4	51.4	51.4	81	45.8	0	1	270	0.00	29.819 
07:20	51.7	51.7	51.7	81	46.1	0	1	270	0.00	29.819 
07:25	52.0	52.0	52.0	80	46.0	0	1	270	0.00	29.819 
07:30	52.2	52.2	52.2	79	45.9	0	1	270	0.00	29.820 
07:35	52.5	52.5	52.5	79	46.2	0	1	270	0.00	29.820 
07:40	52.6	52.6	52.6	78	45.9	0	1	270	0.00	29.820 
07:45	52.9	52.9	52.9	78	46.2	0	1	270	0.00	29.821 
07:50	53.1	53.1	53.1	78	46.4	0	1	270	0.00	29.821 
07:55	53.2	53.2	53.2	77	46.2	0	1	270	0.00	29.821 
08:00	53.3	53.3	53.3	77	46.3	0	2	270	0.00	29.821 
08:05	53.6	53.6	53.6	77	46.6	0	2	270	0.00	29.821 
08:10	53.8	53.8	53.8	76	46.4	0	2	270	0.00	29.821 
08:15	53.9	53.9	53.9	76	46.5	0	2	270	0.00	29.831 
08:20	54.1	54.1	54.1	75	46.4	0	1	270	0.00	29.831 
08:25	54.2	54.2	54.2	75	46.4	0	2	270	0.00	29.831 
08:30	54.5	54.5	54.5	75	46.7	0	2	270	0.00	29.831 
08:35	54.7	54.7	54.7	74	46.6	0	2	270	0.00	29.831 
08:40	55.0	55.0	55.0	73	46.5	1	3	270	0.00	29.831 
08:45	55.3	55.3	55.3	72	46.4	2	5	270	0.00	29.831 
08:50	55.9	55.9	55.9	73	47.4	2	5	270	0.00	29.831 
08:55	56.2	56.2	56.2	70	46.5	2	4	270	0.00	29.831 
09:00	56.5	56.5	56.5	69	46.5	2	4	270	0.00	29.828 
09:05	56.9	56.9	56.9	68	46.4	2	4	270	0.00	29.828 
09:10	57.3	57.3	57.3	67	46.4	1	5	270	0.00	29.828 
09:15	57.6	57.6	57.6	67	46.7	1	3	270	0.00	29.833 
09:20	58.0	58.0	58.0	66	46.7	2	4	270	0.00	29.833 
09:25	58.1	58.1	58.1	65	46.4	2	6	270	0.00	29.833 
09:30	58.3	58.3	58.3	65	46.6	2	4	270	0.00	29.832 
09:35	58.4	58.4	58.4	65	46.7	3	5	270	0.00	29.832 
09:40	58.6	58.6	58.6	65	46.9	2	4	270	0.00	29.832 
09:45	58.9	58.9	58.9	65	47.2	2	3	270	0.00	29.833 
09:50	59.2	59.2	59.2	63	46.6	1	4	292	0.00	29.833 
09:55	59.5	59.5	59.5	63	46.9	2	5	270	0.00	29.833 
10:00	59.8	59.8	59.8	64	47.6	1	4	270	0.00	29.830 
10:05	60.2	60.2	60.2	62	47.1	2	5	270	0.00	29.830 
10:10	60.7	60.7	60.7	62	47.6	1	4	270	0.00	29.830 
10:15	61.0	61.0	61.0	60	47.0	2	5	270	0.00	29.831 
10:20	60.9	60.9	60.9	58	46.0	3	6	270	0.00	29.831 
10:25	60.7	60.7	60.7	55	44.4	3	6	270	0.00	29.831 
10:30	60.5	60.5	60.5	56	44.7	3	5	292	0.00	29.828 
10:35	60.5	60.5	60.5	57	45.2	2	5	292	0.00	29.828 
10:40	60.7	60.7	60.7	55	44.4	3	9	315	0.00	29.828 
10:45	60.9	60.9	60.9	57	45.6	3	7	270	0.00	29.831 
10:50	61.2	61.2	61.2	54	44.4	3	7	270	0.00	29.831 
10:55	61.3	61.3	61.3	52	43.5	3	6	315	0.00	29.831 
11:00	61.6	61.6	61.6	51	43.3	3	6	315	0.00	29.833 
11:05	61.5	61.5	61.5	52	43.7	2	7	270	0.00	29.833 
11:10	61.6	61.6	61.6	55	45.3	3	6	270	0.00	29.833 
11:15	62.0	62.0	62.0	52	44.2	3	5	270	0.00	29.835 
11:20	62.6	62.6	62.6	54	45.7	1	4	270	0.00	29.835 
11:25	62.0	62.0	62.0	54	45.2	2	6	270	0.00	29.835 
11:30	62.4	62.4	62.4	53	45.0	2	4	270	0.00	29.836 
11:35	62.4	62.4	62.4	51	44.0	2	5	338	0.00	29.836 
11:40	61.8	61.8	61.8	52	44.0	3	6	270	0.00	29.836 
11:45	61.0	61.0	61.0	52	43.2	2	5	315	0.00	29.836 
11:50	60.5	60.5	60.5	53	43.3	2	5	315	0.00	29.836 
11:55	60.1	60.1	60.1	55	43.9	2	4	315	0.00	29.836 
12:00	60.4	60.4	60.4	56	44.6	2	5	248	0.00	29.837 
12:05	61.5	61.5	61.5	53	44.2	3	6	315	0.00	29.837 
12:10	62.1	62.1	62.1	51	43.8	4	9	270	0.00	29.837 
12:15	62.3	62.3	62.3	52	44.4	3	5	292	0.00	29.835 
12:20	62.0	62.0	62.0	52	44.2	2	5	270	0.00	29.835 
12:25	62.0	62.0	62.0	53	44.7	1	3	338	0.00	29.835 
12:30	62.4	62.4	62.4	51	44.0	3	6	270	0.00	29.833 
12:35	62.7	62.7	62.7	53	45.3	3	6	270	0.00	29.833 
12:40	63.5	63.5	63.5	53	46.1	2	5	270	0.00	29.833 
12:45	63.7	63.7	63.7	51	45.2	2	4	292	0.00	29.828 
12:50	64.3	64.3	64.3	50	45.3	2	5	270	0.00	29.828 
12:55	64.7	64.7	64.7	50	45.6	2	5	270	0.00	29.828 
13:00	63.9	63.9	63.9	51	45.4	3	6	292	0.00	29.824 
13:05	62.9	62.9	62.9	54	46.0	3	7	338	0.00	29.824 
13:10	63.5	63.5	63.5	52	45.6	2	5	292	0.00	29.824 
13:15	62.7	62.7	62.7	50	43.8	3	4	270	0.00	29.819 
13:20	61.8	61.8	61.8	51	43.5	4	9	292	0.00	29.819 
13:25	62.4	62.4	62.4	54	45.5	3	6	270	0.00	29.819 
13:30	63.5	63.5	63.5	54	46.6	2	5	315	0.00	29.819 
13:35	63.5	63.5	63.5	50	44.5	3	6	292	0.00	29.819 
13:40	62.7	62.7	62.7	49	43.3	3	5	315	0.00	29.819 
13:45	62.1	62.1	62.1	53	44.8	4	7	270	0.00	29.818 
13:50	61.2	61.2	61.2	55	44.9	4	7	270	0.00	29.818 
13:55	60.7	60.7	60.7	54	44.0	3	10	315	0.00	29.818 
14:00	60.5	60.5	60.5	53	43.3	4	6	270	0.00	29.822 
14:05	60.4	60.4	60.4	57	45.1	2	5	270	0.00	29.822 
14:10	60.2	60.2	60.2	57	44.9	2	4	292	0.00	29.822 
14:15	60.7	60.7	60.7	56	44.9	2	5	270	0.00	29.819 
14:20	61.0	61.0	61.0	58	46.1	2	4	270	0.00	29.819 
14:25	62.3	62.3	62.3	57	46.9	2	5	270	0.00	29.819 
14:30	63.1	63.1	63.1	54	46.2	1	4	270	0.00	29.816 
14:35	62.4	62.4	62.4	53	45.0	2	8	315	0.00	29.816 
14:40	62.3	62.3	62.3	51	43.9	4	10	270	0.00	29.816 
14:45	60.9	60.9	60.9	50	42.1	3	10	292	0.00	29.823 
14:50	60.2	60.2	60.2	54	43.5	1	3	292	0.00	29.823 
14:55	60.9	60.9	60.9	60	46.9	2	4	315	0.00	29.823 
15:00	61.8	61.8	61.8	58	46.9	3	5	292	0.00	29.821 
15:05	62.6	62.6	62.6	56	46.7	2	7	292	0.00	29.821 
15:10	63.5	63.5	63.5	57	48.0	2	5	270	0.00	29.821 
15:15	64.0	64.0	64.0	50	45.0	3	5	270	0.00	29.817 
15:20	63.9	63.9	63.9	50	44.9	3	7	270	0.00	29.817 
15:25	63.2	63.2	63.2	51	44.8	3	7	270	0.00	29.817 
15:30	62.6	62.6	62.6	54	45.7	2	4	338	0.00	29.817 
15:35	62.7	62.7	62.7	53	45.3	3	6	270	0.00	29.817 
15:40	62.7	62.7	62.7	53	45.3	3	7	270	0.00	29.817 
15:45	62.6	62.6	62.6	55	46.2	2	7	292	0.00	29.812 
15:50	62.4	62.4	62.4	52	44.5	2	6	292	0.00	29.812 
15:55	62.4	62.4	62.4	53	45.0	2	6	292	0.00	29.812 
16:00	62.1	62.1	62.1	51	43.8	4	6	270	0.00	29.813 
16:05	62.1	62.1	62.1	53	44.8	2	5	292	0.00	29.813 
16:10	62.9	62.9	62.9	51	44.5	2	7	292	0.00	29.813 
16:15	63.2	63.2	63.2	52	45.3	2	7	270	0.00	29.809 
16:20	62.9	62.9	62.9	51	44.5	1	5	292	0.00	29.809 
16:25	63.1	63.1	63.1	52	45.2	3	5	270	0.00	29.809 
16:30	63.2	63.2	63.2	49	43.7	2	7	315	0.00	29.805 
16:35	62.6	62.6	62.6	48	42.6	3	7	270	0.00	29.805 
16:40	63.2	63.2	63.2	48	43.2	3	7	292	0.00	29.805 
16:45	63.4	63.4	63.4	46	42.3	3	9	292	0.00	29.805 
16:50	63.7	63.7	63.7	47	43.1	3	7	338	0.00	29.805 
16:55	64.0	64.0	64.0	48	43.9	3	6	292	0.00	29.805 
17:00	63.4	63.4	63.4	48	43.4	4	7	270	0.00	29.807 
17:05	63.5	63.5	63.5	49	44.0	2	5	292	0.00	29.807 
17:10	63.4	63.4	63.4	49	43.9	3	9	315	0.00	29.807 
17:15	63.4	63.4	63.4	50	44.4	1	5	292	0.00	29.806 
17:20	63.1	63.1	63.1	47	42.5	4	10	292	0.00	29.806 
17:25	62.6	62.6	62.6	49	43.2	2	7	292	0.00	29.806 
17:30	63.1	63.1	63.1	51	44.7	2	5	292	0.00	29.808 
17:35	62.9	62.9	62.9	46	41.8	4	7	292	0.00	29.808 
17:40	62.7	62.7	62.7	46	41.6	4	12	292	0.00	29.808 
17:45	62.6	62.6	62.6	48	42.6	3	6	315	0.00	29.809 
17:50	62.7	62.7	62.7	48	42.7	2	9	315	0.00	29.809 
17:55	62.1	62.1	62.1	46	41.1	2	7	315	0.00	29.809 
18:00	61.8	61.8	61.8	46	40.8	3	11	315	0.00	29.817 
18:05	61.8	61.8	61.8	48	41.9	2	6	292	0.00	29.817 
18:10	61.6	61.6	61.6	47	41.2	3	7	315	0.00	29.817 
18:15	61.8	61.8	61.8	50	43.0	3	7	270	0.00	29.820 
18:20	61.8	61.8	61.8	49	42.4	3	7	270	0.00	29.820 
18:25	61.5	61.5	61.5	48	41.6	3	9	315	0.00	29.820 
18:30	61.3	61.3	61.3	50	42.5	2	6	315	0.00	29.825 
18:35	61.0	61.0	61.0	48	41.2	3	7	315	0.00	29.825 
18:40	60.5	60.5	60.5	46	39.6	3	8	292	0.00	29.825 
18:45	60.2	60.2	60.2	46	39.3	4	10	292	0.00	29.827 
18:50	60.1	60.1	60.1	47	39.8	3	9	292	0.00	29.827 
18:55	60.1	60.1	60.1	48	40.3	3	6	292	0.00	29.827 
19:00	60.1	60.1	60.1	48	40.3	2	6	292	0.00	29.831 
19:05	60.1	60.1	60.1	49	40.9	3	7	270	0.00	29.831 
19:10	59.9	59.9	59.9	50	41.2	2	5	292	0.00	29.831 
19:15	59.8	59.8	59.8	49	40.6	3	6	315	0.00	29.834 
19:20	59.6	59.6	59.6	50	40.9	2	4	292	0.00	29.834 
19:25	59.3	59.3	59.3	50	40.7	2	5	292	0.00	29.834 
19:30	59.2	59.2	59.2	50	40.6	3	9	292	0.00	29.837 
19:35	58.9	58.9	58.9	51	40.8	3	6	270	0.00	29.837 
19:40	58.6	58.6	58.6	51	40.5	2	7	315	0.00	29.837 
19:45	58.3	58.3	58.3	51	40.3	3	7	292	0.00	29.839 
19:50	58.1	58.1	58.1	52	40.6	1	3	292	0.00	29.839 
19:55	57.8	57.8	57.8	51	39.8	2	5	270	0.00	29.839 
20:00	57.5	57.5	57.5	51	39.5	2	6	292	0.00	29.841 
20:05	57.2	57.2	57.2	52	39.7	1	4	315	0.00	29.841 
20:10	57.0	57.0	57.0	52	39.5	1	4	315	0.00	29.841 
20:15	56.7	56.7	56.7	53	39.8	1	4	0	0.00	29.844 
20:20	56.5	56.5	56.5	54	40.1	0	3	0	0.00	29.844 
20:25	56.3	56.3	56.3	54	39.9	3	6	270	0.00	29.844 
20:30	56.0	56.0	56.0	54	39.6	3	6	270	0.00	29.852 
20:35	55.7	55.7	55.7	55	39.8	1	4	270	0.00	29.852 
20:40	55.4	55.4	55.4	56	40.0	2	4	292	0.00	29.852 
20:45	55.1	55.1	55.1	56	39.7	2	5	292	0.00	29.855 
20:50	54.8	54.8	54.8	57	39.9	2	6	292	0.00	29.855 
20:55	54.7	54.7	54.7	57	39.8	1	4	292	0.00	29.855 
21:00	54.4	54.4	54.4	58	39.9	1	4	292	0.00	29.856 
21:05	54.2	54.2	54.2	58	39.7	1	4	315	0.00	29.856 
21:10	54.1	54.1	54.1	58	39.7	1	2	315	0.00	29.856 
21:15	53.8	53.8	53.8	59	39.8	1	3	315	0.00	29.856 
21:20	53.5	53.5	53.5	60	40.0	0	2	315	0.00	29.856 
21:25	53.3	53.3	53.3	60	39.8	1	3	315	0.00	29.856 
21:30	53.2	53.2	53.2	60	39.7	1	4	315	0.00	29.858 
21:35	53.1	53.1	53.1	60	39.6	1	3	315	0.00	29.858 
21:40	52.9	52.9	52.9	60	39.4	0	2	315	0.00	29.858 
21:45	52.8	52.8	52.8	61	39.7	0	1	315	0.00	29.868 
21:50	52.5	52.5	52.5	62	39.9	0	1	315	0.00	29.868 
21:55	52.3	52.3	52.3	62	39.7	0	1	315	0.00	29.868 
22:00	52.0	52.0	52.0	63	39.8	0	1	315	0.00	29.870 
22:05	51.9	51.9	51.9	63	39.7	1	4	270	0.00	29.870 
22:10	51.7	51.7	51.7	62	39.1	0	2	270	0.00	29.870 
22:15	51.7	51.7	51.7	62	39.1	1	4	270	0.00	29.871 
22:20	51.6	51.6	51.6	63	39.4	1	3	270	0.00	29.871 
22:25	51.3	51.3	51.3	64	39.5	0	2	270	0.00	29.871 
22:30	51.1	51.1	51.1	64	39.4	1	3	270	0.00	29.882 
22:35	51.0	51.0	51.0	63	38.9	0	2	315	0.00	29.882 
22:40	50.8	50.8	50.8	63	38.7	1	3	315	0.00	29.882 
22:45	50.7	50.7	50.7	63	38.6	1	4	315	0.00	29.883 
22:50	50.7	50.7	50.7	63	38.6	1	5	270	0.00	29.883 
22:55	50.4	50.4	50.4	63	38.3	1	3	292	0.00	29.883 
23:00	50.2	50.2	50.2	63	38.1	0	2	292	0.00	29.884 
23:05	50.2	50.2	50.2	64	38.5	0	1	292	0.00	29.884 
23:10	49.9	49.9	49.9	64	38.2	0	3	292	0.00	29.884 
23:15	49.8	49.8	49.8	64	38.1	0	2	292	0.00	29.885 
23:20	49.6	49.6	49.6	64	37.9	0	2	292	0.00	29.885 
23:25	49.5	49.5	49.5	65	38.2	0	4	292	0.00	29.885 
23:30	49.4	49.4	49.4	65	38.1	0	2	292	0.00	29.888 
23:35	49.2	49.2	49.2	65	37.9	0	2	292	0.00	29.888 
23:40	49.1	49.1	49.1	65	37.8	0	3	292	0.00	29.888 
23:45	49.1	49.1	49.1	65	37.8	0	2	315	0.00	29.888 
23:50	48.9	48.9	48.9	65	37.7	0	1	315	0.00	29.888 
23:55	48.8	48.8	48.8	65	37.6	0	3	315	0.00	29.888 

CoCoRaHS
IN-AL-39
A2 Web Hosting
Creative Commons License
GoDaddy
search engine by freefind advanced

loaded 2018-11-20 03:32:28 • last modified 2010-11-18 10:43:29
Privacy PolicyDisclaimer
• wx.awcolley.com is powered by PmWiki v.2002016 •
• all content (unless otherwise noted) © 2018 A W Colley